KSPI/SPI METAR and TAF weather

Enter ICAO airport designator
Station Type Date Time Source
KSPI METAR 2020/01/29 02:52 UTC NOAA

KSPI 290252Z 32006KT 7SM OVC009 M02/M04 A3014 RMK AO2 SLP212 T10171044 51007


Station Type Date Time Source
KSPI Decoded METAR 2020/01/29 02:52 UTC NOAA

ABRAHAM LINCOLN CAPITAL AIRPORT , IL, United States (KSPI) 39-51N 89-41W 181M
Jan 28, 2020 - 09:52 PM EST / 2020.01.29 0252 UTC
Wind: from the NW (320 degrees) at 7 MPH (6 KT):0
Visibility: 7 mile(s):0
Sky conditions: overcast
Temperature: 28.9 F (-1.7 C)
Windchill: 21 F (-6 C):1
Dew Point: 24.1 F (-4.4 C)
Relative Humidity: 81%
Pressure (altimeter): 30.14 in. Hg (1020 hPa)
Pressure tendency: 0.02 inches (0.7 hPa) higher than three hours ago
ob: KSPI 290252Z 32006KT 7SM OVC009 M02/M04 A3014 RMK AO2 SLP212 T10171044 51007
cycle: 3

Station Type Date Time Source
KSPI TAF 2020/01/29 03:30 UTC NOAA

TAF
AMD KSPI 290328Z 2903/2924 VRB03KT 6SM BR OVC008
FM290800 VRB03KT 4SM BR OVC008
FM291500 08005KT 4SM -SN BR OVC010

Example: see airport list